sensor_id;sensor_type;location;lat;lon;timestamp;pressure;altitude;pressure_sealevel;temperature;humidity
10720;BME280;5411;58.386;15.560;2023-11-21T00:01:07;100698.34;;;1.83;100.00
10720;BME280;5411;58.386;15.560;2023-11-21T00:03:41;100700.84;;;1.84;100.00
10720;BME280;5411;58.386;15.560;2023-11-21T00:06:16;100698.06;;;1.86;100.00
10720;BME280;5411;58.386;15.560;2023-11-21T00:08:46;100700.97;;;1.83;100.00
10720;BME280;5411;58.386;15.560;2023-11-21T00:11:17;100701.25;;;1.79;100.00
10720;BME280;5411;58.386;15.560;2023-11-21T00:13:45;100701.25;;;1.79;100.00
10720;BME280;5411;58.386;15.560;2023-11-21T00:16:18;100698.34;;;1.83;100.00
10720;BME280;5411;58.386;15.560;2023-11-21T00:18:49;100706.53;;;1.79;100.00
10720;BME280;5411;58.386;15.560;2023-11-21T00:21:18;100700.16;;;1.72;100.00
10720;BME280;5411;58.386;15.560;2023-11-21T00:23:46;100703.19;;;1.68;100.00
10720;BME280;5411;58.386;15.560;2023-11-21T00:26:15;100712.06;;;1.67;100.00
10720;BME280;5411;58.386;15.560;2023-11-21T00:28:43;100713.31;;;1.63;100.00
10720;BME280;5411;58.386;15.560;2023-11-21T00:31:12;100713.16;;;1.64;100.00
10720;BME280;5411;58.386;15.560;2023-11-21T00:33:42;100718.88;;;1.60;100.00
10720;BME280;5411;58.386;15.560;2023-11-21T00:36:11;100714.69;;;1.57;100.00
10720;BME280;5411;58.386;15.560;2023-11-21T00:38:42;100716.31;;;1.49;100.00
10720;BME280;5411;58.386;15.560;2023-11-21T00:41:10;100713.16;;;1.45;100.00
10720;BME280;5411;58.386;15.560;2023-11-21T00:43:41;100717.72;;;1.43;100.00
10720;BME280;5411;58.386;15.560;2023-11-21T00:46:11;100720.50;;;1.41;100.00
10720;BME280;5411;58.386;15.560;2023-11-21T00:48:43;100728.53;;;1.40;100.00
10720;BME280;5411;58.386;15.560;2023-11-21T00:51:11;100728.66;;;1.38;100.00
10720;BME280;5411;58.386;15.560;2023-11-21T00:53:42;100738.38;;;1.38;100.00
10720;BME280;5411;58.386;15.560;2023-11-21T00:56:10;100735.84;;;1.27;100.00
10720;BME280;5411;58.386;15.560;2023-11-21T00:58:40;100740.25;;;1.17;100.00
10720;BME280;5411;58.386;15.560;2023-11-21T01:01:14;100752.25;;;1.10;100.00
10720;BME280;5411;58.386;15.560;2023-11-21T01:03:46;100747.53;;;1.03;100.00
10720;BME280;5411;58.386;15.560;2023-11-21T01:06:16;100755.00;;;0.98;100.00
10720;BME280;5411;58.386;15.560;2023-11-21T01:08:45;100756.91;;;0.96;100.00
10720;BME280;5411;58.386;15.560;2023-11-21T01:11:13;100757.19;;;0.93;100.00
10720;BME280;5411;58.386;15.560;2023-11-21T01:13:42;100768.97;;;0.89;100.00
10720;BME280;5411;58.386;15.560;2023-11-21T01:16:11;100764.78;;;0.87;100.00
10720;BME280;5411;58.386;15.560;2023-11-21T01:18:40;100767.91;;;0.81;100.00
10720;BME280;5411;58.386;15.560;2023-11-21T01:21:09;100769.72;;;0.80;100.00
10720;BME280;5411;58.386;15.560;2023-11-21T01:23:38;100774.97;;;0.80;100.00
10720;BME280;5411;58.386;15.560;2023-11-21T01:26:07;100789.16;;;0.79;100.00
10720;BME280;5411;58.386;15.560;2023-11-21T01:28:36;100784.72;;;0.80;100.00
10720;BME280;5411;58.386;15.560;2023-11-21T01:31:08;100791.50;;;0.82;100.00
10720;BME280;5411;58.386;15.560;2023-11-21T01:33:36;100796.38;;;0.87;100.00
10720;BME280;5411;58.386;15.560;2023-11-21T01:36:05;100789.78;;;0.92;100.00
10720;BME280;5411;58.386;15.560;2023-11-21T01:38:36;100791.03;;;0.98;100.00
10720;BME280;5411;58.386;15.560;2023-11-21T01:41:05;100789.22;;;0.98;100.00
10720;BME280;5411;58.386;15.560;2023-11-21T01:43:33;100803.94;;;1.01;100.00
10720;BME280;5411;58.386;15.560;2023-11-21T01:46:02;100796.19;;;0.99;100.00
10720;BME280;5411;58.386;15.560;2023-11-21T01:48:33;100806.25;;;0.94;100.00
10720;BME280;5411;58.386;15.560;2023-11-21T01:51:02;100803.06;;;0.91;100.00
10720;BME280;5411;58.386;15.560;2023-11-21T01:53:32;100816.94;;;0.93;100.00
10720;BME280;5411;58.386;15.560;2023-11-21T01:56:02;100816.38;;;0.89;100.00
10720;BME280;5411;58.386;15.560;2023-11-21T01:58:31;100820.22;;;0.85;100.00
10720;BME280;5411;58.386;15.560;2023-11-21T02:01:00;100817.44;;;0.87;100.00
10720;BME280;5411;58.386;15.560;2023-11-21T02:03:28;100822.47;;;0.90;100.00
10720;BME280;5411;58.386;15.560;2023-11-21T02:06:01;100822.91;;;0.95;100.00
10720;BME280;5411;58.386;15.560;2023-11-21T02:08:30;100827.06;;;0.97;100.00
10720;BME280;5411;58.386;15.560;2023-11-21T02:10:59;100829.59;;;0.99;100.00
10720;BME280;5411;58.386;15.560;2023-11-21T02:13:30;100827.78;;;0.99;100.00
10720;BME280;5411;58.386;15.560;2023-11-21T02:16:02;100835.31;;;1.04;100.00
10720;BME280;5411;58.386;15.560;2023-11-21T02:18:32;100834.06;;;1.08;100.00
10720;BME280;5411;58.386;15.560;2023-11-21T02:21:06;100834.50;;;1.13;100.00
10720;BME280;5411;58.386;15.560;2023-11-21T02:23:36;100834.25;;;1.16;100.00
10720;BME280;5411;58.386;15.560;2023-11-21T02:26:09;100836.66;;;1.19;100.00
10720;BME280;5411;58.386;15.560;2023-11-21T02:28:40;100842.75;;;1.20;100.00
10720;BME280;5411;58.386;15.560;2023-11-21T02:31:10;100843.56;;;1.20;100.00
10720;BME280;5411;58.386;15.560;2023-11-21T02:33:39;100855.34;;;1.16;100.00
10720;BME280;5411;58.386;15.560;2023-11-21T02:36:08;100845.91;;;1.14;100.00
10720;BME280;5411;58.386;15.560;2023-11-21T02:38:38;100854.19;;;1.09;100.00
10720;BME280;5411;58.386;15.560;2023-11-21T02:41:07;100853.75;;;1.04;100.00
10720;BME280;5411;58.386;15.560;2023-11-21T02:43:35;100854.72;;;1.03;100.00
10720;BME280;5411;58.386;15.560;2023-11-21T02:46:06;100861.78;;;1.02;100.00
10720;BME280;5411;58.386;15.560;2023-11-21T02:48:36;100867.63;;;1.06;100.00
10720;BME280;5411;58.386;15.560;2023-11-21T02:51:03;100869.72;;;1.12;100.00
10720;BME280;5411;58.386;15.560;2023-11-21T02:53:32;100873.31;;;1.11;100.00
10720;BME280;5411;58.386;15.560;2023-11-21T02:56:08;100867.34;;;1.09;100.00
10720;BME280;5411;58.386;15.560;2023-11-21T02:58:36;100879.81;;;1.07;100.00
10720;BME280;5411;58.386;15.560;2023-11-21T03:01:05;100894.81;;;1.06;100.00
10720;BME280;5411;58.386;15.560;2023-11-21T03:03:34;100895.78;;;1.05;100.00
10720;BME280;5411;58.386;15.560;2023-11-21T03:06:07;100891.34;;;1.06;100.00
10720;BME280;5411;58.386;15.560;2023-11-21T03:08:36;100896.44;;;1.07;100.00
10720;BME280;5411;58.386;15.560;2023-11-21T03:11:04;100892.03;;;1.08;100.00
10720;BME280;5411;58.386;15.560;2023-11-21T03:13:35;100897.28;;;1.08;100.00
10720;BME280;5411;58.386;15.560;2023-11-21T03:16:06;100910.22;;;1.11;100.00
10720;BME280;5411;58.386;15.560;2023-11-21T03:18:35;100908.28;;;1.13;100.00
10720;BME280;5411;58.386;15.560;2023-11-21T03:21:03;100907.56;;;1.11;100.00
10720;BME280;5411;58.386;15.560;2023-11-21T03:23:32;100914.28;;;1.15;100.00
10720;BME280;5411;58.386;15.560;2023-11-21T03:26:00;100908.16;;;1.15;100.00
10720;BME280;5411;58.386;15.560;2023-11-21T03:28:29;100925.78;;;1.14;100.00
10720;BME280;5411;58.386;15.560;2023-11-21T03:30:59;100926.72;;;1.13;100.00
10720;BME280;5411;58.386;15.560;2023-11-21T03:33:27;100918.25;;;1.10;100.00
10720;BME280;5411;58.386;15.560;2023-11-21T03:35:56;100926.03;;;1.11;100.00
10720;BME280;5411;58.386;15.560;2023-11-21T03:38:24;100928.91;;;1.08;100.00
10720;BME280;5411;58.386;15.560;2023-11-21T03:40:55;100926.53;;;1.05;100.00
10720;BME280;5411;58.386;15.560;2023-11-21T03:43:23;100930.69;;;1.07;100.00
10720;BME280;5411;58.386;15.560;2023-11-21T03:45:52;100931.81;;;1.05;100.00
10720;BME280;5411;58.386;15.560;2023-11-21T03:48:22;100930.28;;;1.02;100.00
10720;BME280;5411;58.386;15.560;2023-11-21T03:50:50;100928.59;;;1.01;100.00
10720;BME280;5411;58.386;15.560;2023-11-21T03:53:19;100938.88;;;1.04;100.00
10720;BME280;5411;58.386;15.560;2023-11-21T03:55:57;100945.53;;;1.08;100.00
10720;BME280;5411;58.386;15.560;2023-11-21T03:58:26;100941.94;;;1.10;100.00
10720;BME280;5411;58.386;15.560;2023-11-21T04:00:55;100950.69;;;1.10;100.00
10720;BME280;5411;58.386;15.560;2023-11-21T04:03:24;100950.56;;;1.12;100.00
10720;BME280;5411;58.386;15.560;2023-11-21T04:05:53;100960.03;;;1.14;100.00
10720;BME280;5411;58.386;15.560;2023-11-21T04:08:21;100959.06;;;1.15;100.00
10720;BME280;5411;58.386;15.560;2023-11-21T04:10:49;100965.88;;;1.18;100.00
10720;BME280;5411;58.386;15.560;2023-11-21T04:13:20;100967.41;;;1.20;100.00
10720;BME280;5411;58.386;15.560;2023-11-21T04:15:48;100973.25;;;1.24;100.00
10720;BME280;5411;58.386;15.560;2023-11-21T04:18:21;100980.09;;;1.26;100.00
10720;BME280;5411;58.386;15.560;2023-11-21T04:20:54;100979.72;;;1.31;100.00
10720;BME280;5411;58.386;15.560;2023-11-21T04:23:22;100986.50;;;1.33;100.00
10720;BME280;5411;58.386;15.560;2023-11-21T04:25:50;100988.16;;;1.34;100.00
10720;BME280;5411;58.386;15.560;2023-11-21T04:28:21;100984.19;;;1.40;100.00
10720;BME280;5411;58.386;15.560;2023-11-21T04:30:53;100984.06;;;1.41;100.00
10720;BME280;5411;58.386;15.560;2023-11-21T04:33:22;100981.56;;;1.40;100.00
10720;BME280;5411;58.386;15.560;2023-11-21T04:35:50;100990.19;;;1.42;100.00
10720;BME280;5411;58.386;15.560;2023-11-21T04:38:20;100987.56;;;1.42;100.00
10720;BME280;5411;58.386;15.560;2023-11-21T04:40:49;100995.22;;;1.45;100.00
10720;BME280;5411;58.386;15.560;2023-11-21T04:43:18;100997.84;;;1.45;100.00
10720;BME280;5411;58.386;15.560;2023-11-21T04:45:46;100998.69;;;1.46;100.00
10720;BME280;5411;58.386;15.560;2023-11-21T04:48:15;100997.69;;;1.47;100.00
10720;BME280;5411;58.386;15.560;2023-11-21T04:50:43;101008.22;;;1.47;100.00
10720;BME280;5411;58.386;15.560;2023-11-21T04:53:13;101006.59;;;1.46;100.00
10720;BME280;5411;58.386;15.560;2023-11-21T04:55:43;101000.47;;;1.45;100.00
10720;BME280;5411;58.386;15.560;2023-11-21T04:58:12;101010.06;;;1.46;100.00
10720;BME280;5411;58.386;15.560;2023-11-21T05:00:42;101006.19;;;1.50;100.00
10720;BME280;5411;58.386;15.560;2023-11-21T05:03:10;101015.78;;;1.51;100.00
10720;BME280;5411;58.386;15.560;2023-11-21T05:05:39;101020.19;;;1.51;100.00
10720;BME280;5411;58.386;15.560;2023-11-21T05:08:07;101016.72;;;1.50;100.00
10720;BME280;5411;58.386;15.560;2023-11-21T05:10:36;101014.44;;;1.57;100.00
10720;BME280;5411;58.386;15.560;2023-11-21T05:13:09;101014.56;;;1.55;100.00
10720;BME280;5411;58.386;15.560;2023-11-21T05:15:37;101026.66;;;1.58;100.00
10720;BME280;5411;58.386;15.560;2023-11-21T05:18:06;101015.28;;;1.57;100.00
10720;BME280;5411;58.386;15.560;2023-11-21T05:20:35;101029.16;;;1.59;100.00
10720;BME280;5411;58.386;15.560;2023-11-21T05:23:07;101028.34;;;1.59;100.00
10720;BME280;5411;58.386;15.560;2023-11-21T05:25:35;101029.28;;;1.58;100.00
10720;BME280;5411;58.386;15.560;2023-11-21T05:28:07;101042.06;;;1.62;100.00
10720;BME280;5411;58.386;15.560;2023-11-21T05:30:36;101039.19;;;1.65;100.00
10720;BME280;5411;58.386;15.560;2023-11-21T05:33:06;101047.94;;;1.66;100.00
10720;BME280;5411;58.386;15.560;2023-11-21T05:35:36;101046.84;;;1.68;100.00
10720;BME280;5411;58.386;15.560;2023-11-21T05:38:07;101044.63;;;1.73;100.00
10720;BME280;5411;58.386;15.560;2023-11-21T05:40:37;101047.28;;;1.73;100.00
10720;BME280;5411;58.386;15.560;2023-11-21T05:43:06;101054.09;;;1.76;100.00
10720;BME280;5411;58.386;15.560;2023-11-21T05:45:36;101058.88;;;1.82;100.00
10720;BME280;5411;58.386;15.560;2023-11-21T05:48:05;101058.75;;;1.84;100.00
10720;BME280;5411;58.386;15.560;2023-11-21T05:50:33;101067.75;;;1.81;100.00
10720;BME280;5411;58.386;15.560;2023-11-21T05:53:01;101074.44;;;1.85;100.00
10720;BME280;5411;58.386;15.560;2023-11-21T05:55:32;101069.19;;;1.85;100.00
10720;BME280;5411;58.386;15.560;2023-11-21T05:58:01;101065.56;;;1.86;100.00
10720;BME280;5411;58.386;15.560;2023-11-21T06:00:29;101070.00;;;1.86;100.00
10720;BME280;5411;58.386;15.560;2023-11-21T06:03:00;101075.97;;;1.88;100.00
10720;BME280;5411;58.386;15.560;2023-11-21T06:05:28;101078.34;;;1.91;100.00
10720;BME280;5411;58.386;15.560;2023-11-21T06:07:59;101082.28;;;1.96;100.00
10720;BME280;5411;58.386;15.560;2023-11-21T06:10:31;101093.28;;;2.01;100.00
10720;BME280;5411;58.386;15.560;2023-11-21T06:13:01;101086.31;;;2.00;100.00
10720;BME280;5411;58.386;15.560;2023-11-21T06:15:30;101090.75;;;2.00;100.00
10720;BME280;5411;58.386;15.560;2023-11-21T06:18:00;101092.72;;;1.98;100.00
10720;BME280;5411;58.386;15.560;2023-11-21T06:20:28;101093.41;;;2.00;100.00
10720;BME280;5411;58.386;15.560;2023-11-21T06:22:56;101093.16;;;2.03;100.00
10720;BME280;5411;58.386;15.560;2023-11-21T06:25:27;101099.25;;;2.03;100.00
10720;BME280;5411;58.386;15.560;2023-11-21T06:27:56;101093.47;;;2.09;100.00
10720;BME280;5411;58.386;15.560;2023-11-21T06:30:24;101099.34;;;2.13;100.00
10720;BME280;5411;58.386;15.560;2023-11-21T06:32:53;101104.75;;;2.11;100.00
10720;BME280;5411;58.386;15.560;2023-11-21T06:35:23;101107.63;;;2.08;100.00
10720;BME280;5411;58.386;15.560;2023-11-21T06:37:52;101110.53;;;2.05;100.00
10720;BME280;5411;58.386;15.560;2023-11-21T06:40:20;101112.47;;;2.03;100.00
10720;BME280;5411;58.386;15.560;2023-11-21T06:42:49;101122.59;;;1.98;100.00
10720;BME280;5411;58.386;15.560;2023-11-21T06:45:19;101120.91;;;1.97;100.00
10720;BME280;5411;58.386;15.560;2023-11-21T06:47:48;101128.81;;;1.97;100.00
10720;BME280;5411;58.386;15.560;2023-11-21T06:50:20;101134.81;;;1.99;100.00
10720;BME280;5411;58.386;15.560;2023-11-21T06:52:50;101123.00;;;2.03;100.00
10720;BME280;5411;58.386;15.560;2023-11-21T06:55:19;101136.91;;;2.05;100.00
10720;BME280;5411;58.386;15.560;2023-11-21T06:57:48;101139.56;;;2.05;100.00
10720;BME280;5411;58.386;15.560;2023-11-21T07:00:17;101141.94;;;2.08;100.00
10720;BME280;5411;58.386;15.560;2023-11-21T07:02:50;101137.88;;;2.04;100.00
10720;BME280;5411;58.386;15.560;2023-11-21T07:05:20;101137.28;;;2.01;100.00
10720;BME280;5411;58.386;15.560;2023-11-21T07:07:51;101150.50;;;2.01;100.00
10720;BME280;5411;58.386;15.560;2023-11-21T07:10:22;101152.75;;;2.05;100.00
10720;BME280;5411;58.386;15.560;2023-11-21T07:12:50;101153.34;;;2.09;100.00
10720;BME280;5411;58.386;15.560;2023-11-21T07:15:19;101157.25;;;2.14;100.00
10720;BME280;5411;58.386;15.560;2023-11-21T07:17:47;101158.22;;;2.13;100.00
10720;BME280;5411;58.386;15.560;2023-11-21T07:20:15;101164.22;;;2.15;100.00
10720;BME280;5411;58.386;15.560;2023-11-21T07:22:45;101160.47;;;2.18;100.00
10720;BME280;5411;58.386;15.560;2023-11-21T07:25:17;101166.47;;;2.20;100.00
10720;BME280;5411;58.386;15.560;2023-11-21T07:27:46;101173.31;;;2.23;100.00
10720;BME280;5411;58.386;15.560;2023-11-21T07:30:14;101176.78;;;2.23;100.00
10720;BME280;5411;58.386;15.560;2023-11-21T07:32:42;101179.41;;;2.23;100.00
10720;BME280;5411;58.386;15.560;2023-11-21T07:35:12;101181.34;;;2.21;100.00
10720;BME280;5411;58.386;15.560;2023-11-21T07:37:40;101190.09;;;2.22;100.00
10720;BME280;5411;58.386;15.560;2023-11-21T07:40:10;101190.72;;;2.14;100.00
10720;BME280;5411;58.386;15.560;2023-11-21T07:42:41;101188.63;;;2.08;100.00
10720;BME280;5411;58.386;15.560;2023-11-21T07:45:15;101189.19;;;2.11;100.00
10720;BME280;5411;58.386;15.560;2023-11-21T07:47:43;101188.25;;;2.12;100.00
10720;BME280;5411;58.386;15.560;2023-11-21T07:50:12;101196.00;;;2.14;100.00
10720;BME280;5411;58.386;15.560;2023-11-21T07:52:42;101188.25;;;2.12;100.00
10720;BME280;5411;58.386;15.560;2023-11-21T07:55:10;101190.16;;;2.10;100.00
10720;BME280;5411;58.386;15.560;2023-11-21T07:57:40;101194.00;;;2.06;100.00
10720;BME280;5411;58.386;15.560;2023-11-21T08:00:10;101196.66;;;2.06;100.00
10720;BME280;5411;58.386;15.560;2023-11-21T08:02:39;101201.81;;;2.08;100.00
10720;BME280;5411;58.386;15.560;2023-11-21T08:05:10;101197.63;;;2.05;100.00
10720;BME280;5411;58.386;15.560;2023-11-21T08:07:50;101212.25;;;2.09;100.00
10720;BME280;5411;58.386;15.560;2023-11-21T08:10:19;101208.75;;;2.09;100.00
10720;BME280;5411;58.386;15.560;2023-11-21T08:12:52;101202.28;;;2.13;100.00
10720;BME280;5411;58.386;15.560;2023-11-21T08:15:21;101215.31;;;2.14;100.00
10720;BME280;5411;58.386;15.560;2023-11-21T08:17:49;101218.34;;;2.10;100.00
10720;BME280;5411;58.386;15.560;2023-11-21T08:20:17;101224.47;;;2.10;100.00
10720;BME280;5411;58.386;15.560;2023-11-21T08:22:46;101232.38;;;2.10;100.00
10720;BME280;5411;58.386;15.560;2023-11-21T08:25:15;101234.75;;;2.13;100.00
10720;BME280;5411;58.386;15.560;2023-11-21T08:27:47;101234.06;;;2.11;100.00
10720;BME280;5411;58.386;15.560;2023-11-21T08:30:17;101237.44;;;2.02;100.00
10720;BME280;5411;58.386;15.560;2023-11-21T08:32:46;101239.03;;;1.94;100.00
10720;BME280;5411;58.386;15.560;2023-11-21T08:35:15;101234.00;;;1.91;100.00
10720;BME280;5411;58.386;15.560;2023-11-21T08:37:43;101244.56;;;1.91;100.00
10720;BME280;5411;58.386;15.560;2023-11-21T08:40:12;101241.81;;;1.92;100.00
10720;BME280;5411;58.386;15.560;2023-11-21T08:42:44;101246.84;;;1.95;100.00
10720;BME280;5411;58.386;15.560;2023-11-21T08:45:14;101252.13;;;1.95;100.00
10720;BME280;5411;58.386;15.560;2023-11-21T08:47:46;101261.22;;;1.91;100.00
10720;BME280;5411;58.386;15.560;2023-11-21T08:50:15;101257.44;;;1.84;100.00
10720;BME280;5411;58.386;15.560;2023-11-21T08:52:44;101254.56;;;1.76;100.00
10720;BME280;5411;58.386;15.560;2023-11-21T08:55:14;101258.44;;;1.72;100.00
10720;BME280;5411;58.386;15.560;2023-11-21T08:57:44;101262.47;;;1.76;100.00
10720;BME280;5411;58.386;15.560;2023-11-21T09:00:13;101269.66;;;1.74;100.00
10720;BME280;5411;58.386;15.560;2023-11-21T09:02:45;101270.50;;;1.74;100.00
10720;BME280;5411;58.386;15.560;2023-11-21T09:05:14;101277.47;;;1.75;100.00
10720;BME280;5411;58.386;15.560;2023-11-21T09:07:51;101275.78;;;1.74;100.00
10720;BME280;5411;58.386;15.560;2023-11-21T09:10:20;101280.69;;;1.79;100.00
10720;BME280;5411;58.386;15.560;2023-11-21T09:12:48;101281.78;;;1.76;100.00
10720;BME280;5411;58.386;15.560;2023-11-21T09:15:18;101287.16;;;1.75;100.00
10720;BME280;5411;58.386;15.560;2023-11-21T09:17:48;101291.59;;;1.74;100.00
10720;BME280;5411;58.386;15.560;2023-11-21T09:20:17;101288.41;;;1.71;100.00
10720;BME280;5411;58.386;15.560;2023-11-21T09:22:45;101299.66;;;1.73;100.00
10720;BME280;5411;58.386;15.560;2023-11-21T09:25:13;101290.75;;;1.74;100.00
10720;BME280;5411;58.386;15.560;2023-11-21T09:27:45;101300.16;;;1.67;100.00
10720;BME280;5411;58.386;15.560;2023-11-21T09:30:13;101301.34;;;1.63;100.00
10720;BME280;5411;58.386;15.560;2023-11-21T09:32:42;101297.13;;;1.60;100.00
10720;BME280;5411;58.386;15.560;2023-11-21T09:35:14;101298.84;;;1.50;100.00
10720;BME280;5411;58.386;15.560;2023-11-21T09:37:44;101317.41;;;1.49;100.00
10720;BME280;5411;58.386;15.560;2023-11-21T09:43:09;101307.09;;;1.34;100.00
10720;BME280;5411;58.386;15.560;2023-11-21T09:45:47;101313.47;;;1.32;100.00
10720;BME280;5411;58.386;15.560;2023-11-21T09:48:17;101324.03;;;1.32;100.00
10720;BME280;5411;58.386;15.560;2023-11-21T09:50:50;101330.25;;;1.31;100.00
10720;BME280;5411;58.386;15.560;2023-11-21T09:53:21;101330.72;;;1.36;100.00
10720;BME280;5411;58.386;15.560;2023-11-21T09:56:00;101324.13;;;1.41;100.00
10720;BME280;5411;58.386;15.560;2023-11-21T09:58:29;101335.53;;;1.42;100.00
10720;BME280;5411;58.386;15.560;2023-11-21T10:01:01;101330.03;;;1.45;100.00
10720;BME280;5411;58.386;15.560;2023-11-21T10:03:30;101329.75;;;1.48;100.00
10720;BME280;5411;58.386;15.560;2023-11-21T10:06:01;101333.50;;;1.46;100.00
10720;BME280;5411;58.386;15.560;2023-11-21T10:08:33;101340.91;;;1.40;100.00
10720;BME280;5411;58.386;15.560;2023-11-21T10:11:19;101342.72;;;1.40;100.00
10720;BME280;5411;58.386;15.560;2023-11-21T10:14:00;101342.34;;;1.45;100.00
10720;BME280;5411;58.386;15.560;2023-11-21T10:16:31;101346.16;;;1.63;100.00
10720;BME280;5411;58.386;15.560;2023-11-21T10:19:00;101338.97;;;1.76;100.00
10720;BME280;5411;58.386;15.560;2023-11-21T10:21:39;101332.59;;;1.90;100.00
10720;BME280;5411;58.386;15.560;2023-11-21T10:24:07;101342.75;;;2.05;100.00
10720;BME280;5411;58.386;15.560;2023-11-21T10:26:36;101341.16;;;2.14;100.00
10720;BME280;5411;58.386;15.560;2023-11-21T10:29:19;101338.88;;;2.21;100.00
10720;BME280;5411;58.386;15.560;2023-11-21T10:31:49;101348.47;;;2.22;100.00
10720;BME280;5411;58.386;15.560;2023-11-21T10:34:19;101347.53;;;2.23;100.00
10720;BME280;5411;58.386;15.560;2023-11-21T10:36:50;101343.53;;;2.28;100.00
10720;BME280;5411;58.386;15.560;2023-11-21T10:39:23;101345.47;;;2.26;100.00
10720;BME280;5411;58.386;15.560;2023-11-21T10:41:55;101345.00;;;2.21;100.00
10720;BME280;5411;58.386;15.560;2023-11-21T10:44:23;101336.59;;;2.16;100.00
10720;BME280;5411;58.386;15.560;2023-11-21T10:46:54;101341.56;;;2.09;100.00
10720;BME280;5411;58.386;15.560;2023-11-21T10:49:33;101344.69;;;2.03;100.00
10720;BME280;5411;58.386;15.560;2023-11-21T10:52:09;101348.03;;;2.05;100.00
10720;BME280;5411;58.386;15.560;2023-11-21T10:54:47;101353.06;;;2.08;100.00
10720;BME280;5411;58.386;15.560;2023-11-21T10:57:30;101343.72;;;2.04;100.00
10720;BME280;5411;58.386;15.560;2023-11-21T11:00:01;101355.72;;;2.08;100.00
10720;BME280;5411;58.386;15.560;2023-11-21T11:02:31;101354.78;;;1.98;100.00
10720;BME280;5411;58.386;15.560;2023-11-21T11:05:02;101358.41;;;1.86;100.00
10720;BME280;5411;58.386;15.560;2023-11-21T11:07:35;101365.09;;;1.90;100.00
10720;BME280;5411;58.386;15.560;2023-11-21T11:10:05;101371.44;;;1.99;100.00
10720;BME280;5411;58.386;15.560;2023-11-21T11:12:35;101375.16;;;2.07;100.00
10720;BME280;5411;58.386;15.560;2023-11-21T11:15:05;101373.69;;;2.14;100.00
10720;BME280;5411;58.386;15.560;2023-11-21T11:17:37;101379.91;;;2.25;100.00
10720;BME280;5411;58.386;15.560;2023-11-21T11:20:08;101386.25;;;2.33;100.00
10720;BME280;5411;58.386;15.560;2023-11-21T11:22:46;101387.41;;;2.40;100.00
10720;BME280;5411;58.386;15.560;2023-11-21T11:25:29;101391.16;;;2.38;100.00
10720;BME280;5411;58.386;15.560;2023-11-21T11:28:07;101396.44;;;2.27;100.00
10720;BME280;5411;58.386;15.560;2023-11-21T11:30:53;101393.09;;;2.13;100.00
10720;BME280;5411;58.386;15.560;2023-11-21T11:33:33;101409.25;;;1.99;100.00
10720;BME280;5411;58.386;15.560;2023-11-21T11:36:13;101405.63;;;1.89;100.00
10720;BME280;5411;58.386;15.560;2023-11-21T11:38:46;101418.94;;;1.88;100.00
10720;BME280;5411;58.386;15.560;2023-11-21T11:41:25;101416.78;;;1.93;100.00
10720;BME280;5411;58.386;15.560;2023-11-21T11:43:57;101422.53;;;1.98;100.00
10720;BME280;5411;58.386;15.560;2023-11-21T11:46:41;101434.41;;;2.03;100.00
10720;BME280;5411;58.386;15.560;2023-11-21T11:49:23;101424.44;;;2.07;100.00
10720;BME280;5411;58.386;15.560;2023-11-21T11:54:55;101428.28;;;2.03;100.00
10720;BME280;5411;58.386;15.560;2023-11-21T11:57:24;101433.00;;;1.99;100.00
10720;BME280;5411;58.386;15.560;2023-11-21T12:00:15;101439.22;;;1.98;100.00
10720;BME280;5411;58.386;15.560;2023-11-21T12:02:48;101440.75;;;1.90;100.00
10720;BME280;5411;58.386;15.560;2023-11-21T12:05:17;101445.56;;;1.85;100.00
10720;BME280;5411;58.386;15.560;2023-11-21T12:07:50;101436.94;;;1.83;100.00
10720;BME280;5411;58.386;15.560;2023-11-21T12:10:26;101438.00;;;1.80;100.00
10720;BME280;5411;58.386;15.560;2023-11-21T12:12:55;101441.25;;;1.84;100.00
10720;BME280;5411;58.386;15.560;2023-11-21T12:15:25;101444.75;;;1.84;100.00
10720;BME280;5411;58.386;15.560;2023-11-21T12:17:56;101441.25;;;1.84;100.00
10720;BME280;5411;58.386;15.560;2023-11-21T12:20:26;101439.69;;;1.81;100.00
10720;BME280;5411;58.386;15.560;2023-11-21T12:22:56;101437.41;;;1.76;100.00
10720;BME280;5411;58.386;15.560;2023-11-21T12:25:28;101441.00;;;1.75;100.00
10720;BME280;5411;58.386;15.560;2023-11-21T12:27:59;101438.47;;;1.74;100.00
10720;BME280;5411;58.386;15.560;2023-11-21T12:30:30;101438.47;;;1.74;100.00
10720;BME280;5411;58.386;15.560;2023-11-21T12:33:00;101437.78;;;1.72;100.00
10720;BME280;5411;58.386;15.560;2023-11-21T12:35:34;101433.09;;;1.64;100.00
10720;BME280;5411;58.386;15.560;2023-11-21T12:38:03;101436.56;;;1.65;100.00
10720;BME280;5411;58.386;15.560;2023-11-21T12:40:33;101437.06;;;1.70;100.00
10720;BME280;5411;58.386;15.560;2023-11-21T12:43:02;101443.28;;;1.80;100.00
10720;BME280;5411;58.386;15.560;2023-11-21T12:45:32;101446.88;;;1.90;100.00
10720;BME280;5411;58.386;15.560;2023-11-21T12:48:06;101441.13;;;1.96;100.00
10720;BME280;5411;58.386;15.560;2023-11-21T12:50:36;101439.78;;;2.02;100.00
10720;BME280;5411;58.386;15.560;2023-11-21T12:53:07;101448.09;;;2.08;100.00
10720;BME280;5411;58.386;15.560;2023-11-21T12:55:39;101456.72;;;2.10;100.00
10720;BME280;5411;58.386;15.560;2023-11-21T12:58:09;101448.81;;;2.10;100.00
10720;BME280;5411;58.386;15.560;2023-11-21T13:00:42;101452.88;;;2.03;100.00
10720;BME280;5411;58.386;15.560;2023-11-21T13:03:12;101461.16;;;1.88;100.00
10720;BME280;5411;58.386;15.560;2023-11-21T13:05:46;101462.38;;;1.84;100.00
10720;BME280;5411;58.386;15.560;2023-11-21T13:08:20;101459.13;;;1.80;100.00
10720;BME280;5411;58.386;15.560;2023-11-21T13:10:52;101459.84;;;1.82;100.00
10720;BME280;5411;58.386;15.560;2023-11-21T13:13:22;101462.38;;;1.84;100.00